sensor_id;sensor_type;location;lat;lon;timestamp;pressure;altitude;pressure_sealevel;temperature
72054;BMP280;59918;51.280;7.950;2023-08-21T00:00:03;98675.38;;;18.47
72054;BMP280;59918;51.280;7.950;2023-08-21T00:02:28;98670.59;;;18.44
72054;BMP280;59918;51.280;7.950;2023-08-21T00:04:54;98672.34;;;18.38
72054;BMP280;59918;51.280;7.950;2023-08-21T00:07:19;98669.63;;;18.33
72054;BMP280;59918;51.280;7.950;2023-08-21T00:09:44;98662.88;;;18.32
72054;BMP280;59918;51.280;7.950;2023-08-21T00:12:09;98669.78;;;18.27
72054;BMP280;59918;51.280;7.950;2023-08-21T00:14:35;98668.41;;;18.25
72054;BMP280;59918;51.280;7.950;2023-08-21T00:17:01;98662.97;;;18.26
72054;BMP280;59918;51.280;7.950;2023-08-21T00:19:27;98667.84;;;18.23
72054;BMP280;59918;51.280;7.950;2023-08-21T00:21:52;98662.34;;;18.19
72054;BMP280;59918;51.280;7.950;2023-08-21T00:24:17;98669.34;;;18.19
72054;BMP280;59918;51.280;7.950;2023-08-21T00:26:43;98662.34;;;18.19
72054;BMP280;59918;51.280;7.950;2023-08-21T00:29:08;98663.81;;;18.15
72054;BMP280;59918;51.280;7.950;2023-08-21T00:31:33;98658.63;;;18.15
72054;BMP280;59918;51.280;7.950;2023-08-21T00:33:58;98657.72;;;18.10
72054;BMP280;59918;51.280;7.950;2023-08-21T00:36:24;98662.78;;;18.05
72054;BMP280;59918;51.280;7.950;2023-08-21T00:38:49;98658.84;;;18.02
72054;BMP280;59918;51.280;7.950;2023-08-21T00:41:14;98658.03;;;18.02
72054;BMP280;59918;51.280;7.950;2023-08-21T00:43:39;98654.09;;;17.99
72054;BMP280;59918;51.280;7.950;2023-08-21T00:46:05;98661.91;;;17.99
72054;BMP280;59918;51.280;7.950;2023-08-21T00:48:31;98659.31;;;17.99
72054;BMP280;59918;51.280;7.950;2023-08-21T00:50:56;98666.00;;;17.95
72054;BMP280;59918;51.280;7.950;2023-08-21T00:53:22;98652.88;;;17.90
72054;BMP280;59918;51.280;7.950;2023-08-21T00:55:48;98654.13;;;17.88
72054;BMP280;59918;51.280;7.950;2023-08-21T00:58:13;98649.34;;;17.85
72054;BMP280;59918;51.280;7.950;2023-08-21T01:00:40;98656.59;;;17.83
72054;BMP280;59918;51.280;7.950;2023-08-21T01:03:05;98659.47;;;17.82
72054;BMP280;59918;51.280;7.950;2023-08-21T01:05:31;98649.50;;;17.79
72054;BMP280;59918;51.280;7.950;2023-08-21T01:08:00;98649.72;;;17.77
72054;BMP280;59918;51.280;7.950;2023-08-21T01:10:36;98652.31;;;17.77
72054;BMP280;59918;51.280;7.950;2023-08-21T01:16:08;98656.19;;;17.63
72054;BMP280;59918;51.280;7.950;2023-08-21T01:18:34;98664.19;;;17.62
72054;BMP280;59918;51.280;7.950;2023-08-21T01:21:02;98660.81;;;17.61
72054;BMP280;59918;51.280;7.950;2023-08-21T01:23:32;98656.66;;;17.60
72054;BMP280;59918;51.280;7.950;2023-08-21T01:25:58;98652.66;;;17.58
72054;BMP280;59918;51.280;7.950;2023-08-21T01:28:23;98660.47;;;17.58
72054;BMP280;59918;51.280;7.950;2023-08-21T01:30:51;98660.94;;;17.55
72054;BMP280;59918;51.280;7.950;2023-08-21T01:33:20;98657.22;;;17.51
72054;BMP280;59918;51.280;7.950;2023-08-21T01:35:48;98666.84;;;17.51
72054;BMP280;59918;51.280;7.950;2023-08-21T01:38:14;98669.66;;;17.49
72054;BMP280;59918;51.280;7.950;2023-08-21T01:40:40;98668.31;;;17.47
72054;BMP280;59918;51.280;7.950;2023-08-21T01:43:05;98672.13;;;17.44
72054;BMP280;59918;51.280;7.950;2023-08-21T01:45:30;98671.34;;;17.44
72054;BMP280;59918;51.280;7.950;2023-08-21T01:47:55;98678.34;;;17.43
72054;BMP280;59918;51.280;7.950;2023-08-21T01:50:21;98670.22;;;17.40
72054;BMP280;59918;51.280;7.950;2023-08-21T01:52:46;98678.22;;;17.38
72054;BMP280;59918;51.280;7.950;2023-08-21T01:55:11;98677.56;;;17.31
72054;BMP280;59918;51.280;7.950;2023-08-21T01:57:37;98677.56;;;17.31
72054;BMP280;59918;51.280;7.950;2023-08-21T02:00:03;98684.00;;;17.29
72054;BMP280;59918;51.280;7.950;2023-08-21T02:02:28;98682.41;;;17.28
72054;BMP280;59918;51.280;7.950;2023-08-21T02:04:54;98691.25;;;17.27
72054;BMP280;59918;51.280;7.950;2023-08-21T02:07:19;98694.06;;;17.25
72054;BMP280;59918;51.280;7.950;2023-08-21T02:09:44;98692.47;;;17.24
72054;BMP280;59918;51.280;7.950;2023-08-21T02:12:09;98695.06;;;17.24
72054;BMP280;59918;51.280;7.950;2023-08-21T02:14:35;98691.09;;;17.22
72054;BMP280;59918;51.280;7.950;2023-08-21T02:17:00;98694.75;;;17.21
72054;BMP280;59918;51.280;7.950;2023-08-21T02:19:25;98686.94;;;17.21
72054;BMP280;59918;51.280;7.950;2023-08-21T02:21:50;98692.34;;;17.19
72054;BMP280;59918;51.280;7.950;2023-08-21T02:24:15;98687.94;;;17.20
72054;BMP280;59918;51.280;7.950;2023-08-21T02:26:41;98685.34;;;17.20
72054;BMP280;59918;51.280;7.950;2023-08-21T02:29:06;98688.50;;;17.22
72054;BMP280;59918;51.280;7.950;2023-08-21T02:31:31;98684.56;;;17.31
72054;BMP280;59918;51.280;7.950;2023-08-21T02:33:56;98692.25;;;17.37
72054;BMP280;59918;51.280;7.950;2023-08-21T02:36:22;98687.72;;;17.44
72054;BMP280;59918;51.280;7.950;2023-08-21T02:38:47;98699.03;;;17.50
72054;BMP280;59918;51.280;7.950;2023-08-21T02:41:12;98691.25;;;17.50
72054;BMP280;59918;51.280;7.950;2023-08-21T02:43:37;98690.44;;;17.49
72054;BMP280;59918;51.280;7.950;2023-08-21T02:46:03;98692.13;;;17.44
72054;BMP280;59918;51.280;7.950;2023-08-21T02:48:28;98683.44;;;17.38
72054;BMP280;59918;51.280;7.950;2023-08-21T02:50:53;98694.72;;;17.32
72054;BMP280;59918;51.280;7.950;2023-08-21T02:53:18;98679.25;;;17.26
72054;BMP280;59918;51.280;7.950;2023-08-21T02:55:43;98678.56;;;17.19
72054;BMP280;59918;51.280;7.950;2023-08-21T02:58:09;98671.84;;;17.12
72054;BMP280;59918;51.280;7.950;2023-08-21T03:00:34;98681.69;;;17.10
72054;BMP280;59918;51.280;7.950;2023-08-21T03:03:00;98680.91;;;17.09
72054;BMP280;59918;51.280;7.950;2023-08-21T03:05:25;98681.13;;;17.08
72054;BMP280;59918;51.280;7.950;2023-08-21T03:07:50;98684.72;;;17.07
72054;BMP280;59918;51.280;7.950;2023-08-21T03:10:15;98682.94;;;17.07
72054;BMP280;59918;51.280;7.950;2023-08-21T03:12:41;98675.34;;;17.06
72054;BMP280;59918;51.280;7.950;2023-08-21T03:15:06;98680.75;;;17.04
72054;BMP280;59918;51.280;7.950;2023-08-21T03:17:32;98684.81;;;17.00
72054;BMP280;59918;51.280;7.950;2023-08-21T03:19:57;98684.81;;;17.00
72054;BMP280;59918;51.280;7.950;2023-08-21T03:22:22;98684.81;;;17.00
72054;BMP280;59918;51.280;7.950;2023-08-21T03:24:47;98675.91;;;16.96
72054;BMP280;59918;51.280;7.950;2023-08-21T03:27:15;98678.28;;;16.98
72054;BMP280;59918;51.280;7.950;2023-08-21T03:29:40;98676.09;;;16.95
72054;BMP280;59918;51.280;7.950;2023-08-21T03:32:05;98680.53;;;16.94
72054;BMP280;59918;51.280;7.950;2023-08-21T03:34:30;98680.53;;;16.94
72054;BMP280;59918;51.280;7.950;2023-08-21T03:36:56;98680.75;;;16.93
72054;BMP280;59918;51.280;7.950;2023-08-21T03:39:21;98685.16;;;16.92
72054;BMP280;59918;51.280;7.950;2023-08-21T03:41:46;98677.78;;;16.89
72054;BMP280;59918;51.280;7.950;2023-08-21T03:44:11;98679.38;;;16.90
72054;BMP280;59918;51.280;7.950;2023-08-21T03:46:37;98672.59;;;16.89
72054;BMP280;59918;51.280;7.950;2023-08-21T03:49:02;98672.59;;;16.89
72054;BMP280;59918;51.280;7.950;2023-08-21T03:51:27;98669.22;;;16.89
72054;BMP280;59918;51.280;7.950;2023-08-21T03:53:52;98667.63;;;16.88
72054;BMP280;59918;51.280;7.950;2023-08-21T03:56:18;98666.81;;;16.87
72054;BMP280;59918;51.280;7.950;2023-08-21T03:58:43;98671.44;;;16.85
72054;BMP280;59918;51.280;7.950;2023-08-21T04:01:08;98664.91;;;16.83
72054;BMP280;59918;51.280;7.950;2023-08-21T04:03:33;98659.91;;;16.81
72054;BMP280;59918;51.280;7.950;2023-08-21T04:05:59;98664.31;;;16.81
72054;BMP280;59918;51.280;7.950;2023-08-21T04:08:25;98672.13;;;16.81
72054;BMP280;59918;51.280;7.950;2023-08-21T04:10:50;98671.34;;;16.80
72054;BMP280;59918;51.280;7.950;2023-08-21T04:13:16;98677.53;;;16.79
72054;BMP280;59918;51.280;7.950;2023-08-21T04:15:44;98680.69;;;16.81
72054;BMP280;59918;51.280;7.950;2023-08-21T04:18:10;98667.16;;;16.79
72054;BMP280;59918;51.280;7.950;2023-08-21T04:20:35;98679.34;;;16.79
72054;BMP280;59918;51.280;7.950;2023-08-21T04:23:01;98678.56;;;16.79
72054;BMP280;59918;51.280;7.950;2023-08-21T04:25:27;98681.38;;;16.77
72054;BMP280;59918;51.280;7.950;2023-08-21T04:27:52;98681.59;;;16.76
72054;BMP280;59918;51.280;7.950;2023-08-21T04:30:17;98685.00;;;16.76
72054;BMP280;59918;51.280;7.950;2023-08-21T04:32:42;98687.34;;;16.78
72054;BMP280;59918;51.280;7.950;2023-08-21T04:35:08;98682.72;;;16.79
72054;BMP280;59918;51.280;7.950;2023-08-21T04:37:33;98682.31;;;16.82
72054;BMP280;59918;51.280;7.950;2023-08-21T04:39:58;98691.81;;;16.88
72054;BMP280;59918;51.280;7.950;2023-08-21T04:42:24;98684.13;;;16.93
72054;BMP280;59918;51.280;7.950;2023-08-21T04:44:49;98686.84;;;16.98
72054;BMP280;59918;51.280;7.950;2023-08-21T04:47:25;98683.94;;;17.06
72054;BMP280;59918;51.280;7.950;2023-08-21T04:49:51;98690.84;;;17.12
72054;BMP280;59918;51.280;7.950;2023-08-21T04:52:16;98694.16;;;17.19
72054;BMP280;59918;51.280;7.950;2023-08-21T04:54:41;98691.69;;;17.24
72054;BMP280;59918;51.280;7.950;2023-08-21T04:57:06;98700.25;;;17.24
72054;BMP280;59918;51.280;7.950;2023-08-21T04:59:31;98702.53;;;17.21
72054;BMP280;59918;51.280;7.950;2023-08-21T05:01:57;98700.94;;;17.20
72054;BMP280;59918;51.280;7.950;2023-08-21T05:04:22;98712.69;;;17.22
72054;BMP280;59918;51.280;7.950;2023-08-21T05:06:47;98705.13;;;17.21
72054;BMP280;59918;51.280;7.950;2023-08-21T05:09:12;98705.69;;;17.23
72054;BMP280;59918;51.280;7.950;2023-08-21T05:11:38;98702.06;;;17.24
72054;BMP280;59918;51.280;7.950;2023-08-21T05:14:03;98707.84;;;17.26
72054;BMP280;59918;51.280;7.950;2023-08-21T05:16:28;98700.59;;;17.28
72054;BMP280;59918;51.280;7.950;2023-08-21T05:18:53;98699.72;;;17.34
72054;BMP280;59918;51.280;7.950;2023-08-21T05:21:19;98701.41;;;17.40
72054;BMP280;59918;51.280;7.950;2023-08-21T05:23:44;98712.94;;;17.44
72054;BMP280;59918;51.280;7.950;2023-08-21T05:26:09;98704.25;;;17.50
72054;BMP280;59918;51.280;7.950;2023-08-21T05:28:34;98701.78;;;17.54
72054;BMP280;59918;51.280;7.950;2023-08-21T05:31:00;98702.66;;;17.60
72054;BMP280;59918;51.280;7.950;2023-08-21T05:33:25;98702.09;;;17.69
72054;BMP280;59918;51.280;7.950;2023-08-21T05:35:50;98704.25;;;17.84
72054;BMP280;59918;51.280;7.950;2023-08-21T05:38:15;98697.31;;;18.00
72054;BMP280;59918;51.280;7.950;2023-08-21T05:40:41;98703.72;;;18.21
72054;BMP280;59918;51.280;7.950;2023-08-21T05:43:06;98704.28;;;18.34
72054;BMP280;59918;51.280;7.950;2023-08-21T05:45:31;98706.16;;;18.50
72054;BMP280;59918;51.280;7.950;2023-08-21T05:47:57;98702.94;;;18.59
72054;BMP280;59918;51.280;7.950;2023-08-21T05:50:22;98712.44;;;18.65
72054;BMP280;59918;51.280;7.950;2023-08-21T05:52:47;98709.69;;;18.71
72054;BMP280;59918;51.280;7.950;2023-08-21T05:55:12;98702.53;;;18.78
72054;BMP280;59918;51.280;7.950;2023-08-21T05:57:37;98700.00;;;18.83
72054;BMP280;59918;51.280;7.950;2023-08-21T06:00:03;98706.09;;;18.89
72054;BMP280;59918;51.280;7.950;2023-08-21T06:02:29;98703.34;;;18.95
72054;BMP280;59918;51.280;7.950;2023-08-21T06:04:54;98708.13;;;18.98
72054;BMP280;59918;51.280;7.950;2023-08-21T06:07:19;98712.78;;;19.12
72054;BMP280;59918;51.280;7.950;2023-08-21T06:09:44;98698.97;;;19.44
72054;BMP280;59918;51.280;7.950;2023-08-21T06:12:10;98702.66;;;19.81
72054;BMP280;59918;51.280;7.950;2023-08-21T06:14:35;98699.19;;;20.13
72054;BMP280;59918;51.280;7.950;2023-08-21T06:17:01;98702.09;;;20.38
72054;BMP280;59918;51.280;7.950;2023-08-21T06:19:27;98707.38;;;20.64
72054;BMP280;59918;51.280;7.950;2023-08-21T06:21:54;98709.53;;;20.93
72054;BMP280;59918;51.280;7.950;2023-08-21T06:24:19;98704.09;;;21.04
72054;BMP280;59918;51.280;7.950;2023-08-21T06:26:44;98696.66;;;21.18
72054;BMP280;59918;51.280;7.950;2023-08-21T06:29:10;98706.63;;;21.21
72054;BMP280;59918;51.280;7.950;2023-08-21T06:31:35;98708.72;;;20.92
72054;BMP280;59918;51.280;7.950;2023-08-21T06:34:00;98710.25;;;20.62
72054;BMP280;59918;51.280;7.950;2023-08-21T06:36:25;98700.63;;;20.47
72054;BMP280;59918;51.280;7.950;2023-08-21T06:38:51;98700.56;;;20.42
72054;BMP280;59918;51.280;7.950;2023-08-21T06:41:16;98703.81;;;20.53
72054;BMP280;59918;51.280;7.950;2023-08-21T06:43:41;98705.34;;;20.71
72054;BMP280;59918;51.280;7.950;2023-08-21T06:46:07;98698.53;;;20.91
72054;BMP280;59918;51.280;7.950;2023-08-21T06:48:33;98700.84;;;21.19
72054;BMP280;59918;51.280;7.950;2023-08-21T06:50:59;98710.41;;;21.34
72054;BMP280;59918;51.280;7.950;2023-08-21T06:53:24;98710.75;;;21.43
72054;BMP280;59918;51.280;7.950;2023-08-21T06:55:49;98707.66;;;21.51
72054;BMP280;59918;51.280;7.950;2023-08-21T06:58:14;98705.28;;;21.49
72054;BMP280;59918;51.280;7.950;2023-08-21T07:00:40;98701.84;;;21.44
72054;BMP280;59918;51.280;7.950;2023-08-21T07:03:05;98695.53;;;21.40
72054;BMP280;59918;51.280;7.950;2023-08-21T07:05:30;98710.41;;;21.34
72054;BMP280;59918;51.280;7.950;2023-08-21T07:07:55;98707.19;;;21.27
72054;BMP280;59918;51.280;7.950;2023-08-21T07:10:21;98710.25;;;21.20
72054;BMP280;59918;51.280;7.950;2023-08-21T07:12:46;98713.34;;;21.12
72054;BMP280;59918;51.280;7.950;2023-08-21T07:15:11;98743.06;;;21.01
72054;BMP280;59918;51.280;7.950;2023-08-21T07:17:37;98734.44;;;20.79
72054;BMP280;59918;51.280;7.950;2023-08-21T07:20:02;98706.69;;;20.73
72054;BMP280;59918;51.280;7.950;2023-08-21T07:22:28;98720.38;;;20.80
72054;BMP280;59918;51.280;7.950;2023-08-21T07:24:53;98717.63;;;20.96
72054;BMP280;59918;51.280;7.950;2023-08-21T07:27:18;98717.53;;;21.13
72054;BMP280;59918;51.280;7.950;2023-08-21T07:29:43;98722.88;;;21.23
72054;BMP280;59918;51.280;7.950;2023-08-21T07:32:09;98722.66;;;21.34
72054;BMP280;59918;51.280;7.950;2023-08-21T07:34:34;98722.28;;;21.47
72054;BMP280;59918;51.280;7.950;2023-08-21T07:36:59;98718.22;;;21.60
72054;BMP280;59918;51.280;7.950;2023-08-21T07:39:24;98714.63;;;21.71
72054;BMP280;59918;51.280;7.950;2023-08-21T07:41:50;98715.72;;;21.80
72054;BMP280;59918;51.280;7.950;2023-08-21T07:44:15;98706.94;;;22.01
72054;BMP280;59918;51.280;7.950;2023-08-21T07:46:40;98707.44;;;22.44
72054;BMP280;59918;51.280;7.950;2023-08-21T07:49:07;98702.25;;;22.78
72054;BMP280;59918;51.280;7.950;2023-08-21T07:51:33;98698.13;;;23.07
72054;BMP280;59918;51.280;7.950;2023-08-21T07:53:58;98706.28;;;23.40
72054;BMP280;59918;51.280;7.950;2023-08-21T07:56:23;98701.03;;;23.70
72054;BMP280;59918;51.280;7.950;2023-08-21T07:58:48;98707.53;;;23.97
72054;BMP280;59918;51.280;7.950;2023-08-21T08:01:14;98704.03;;;24.21
72054;BMP280;59918;51.280;7.950;2023-08-21T08:03:39;98703.16;;;24.45
72054;BMP280;59918;51.280;7.950;2023-08-21T08:06:04;98710.97;;;24.65
72054;BMP280;59918;51.280;7.950;2023-08-21T08:08:29;98706.38;;;24.80
72054;BMP280;59918;51.280;7.950;2023-08-21T08:10:55;98708.38;;;24.98
72054;BMP280;59918;51.280;7.950;2023-08-21T08:13:20;98694.56;;;25.16
72054;BMP280;59918;51.280;7.950;2023-08-21T08:15:45;98701.06;;;25.28
72054;BMP280;59918;51.280;7.950;2023-08-21T08:18:14;98694.09;;;25.42
72054;BMP280;59918;51.280;7.950;2023-08-21T08:20:40;98691.81;;;25.64
72054;BMP280;59918;51.280;7.950;2023-08-21T08:23:05;98688.75;;;25.80
72054;BMP280;59918;51.280;7.950;2023-08-21T08:25:30;98684.88;;;25.96
72054;BMP280;59918;51.280;7.950;2023-08-21T08:27:55;98683.09;;;26.14
72054;BMP280;59918;51.280;7.950;2023-08-21T08:30:20;98682.09;;;26.34
72054;BMP280;59918;51.280;7.950;2023-08-21T08:32:46;98684.47;;;26.53
72054;BMP280;59918;51.280;7.950;2023-08-21T08:35:12;98673.41;;;26.70
72054;BMP280;59918;51.280;7.950;2023-08-21T08:37:38;98680.00;;;26.90
72054;BMP280;59918;51.280;7.950;2023-08-21T08:40:04;98676.56;;;27.08
72054;BMP280;59918;51.280;7.950;2023-08-21T08:42:30;98681.53;;;27.28
72054;BMP280;59918;51.280;7.950;2023-08-21T08:44:56;98680.56;;;27.37
72054;BMP280;59918;51.280;7.950;2023-08-21T08:47:22;98686.22;;;27.49
72054;BMP280;59918;51.280;7.950;2023-08-21T08:49:48;98683.28;;;27.64
72054;BMP280;59918;51.280;7.950;2023-08-21T08:52:16;98669.88;;;27.74
72054;BMP280;59918;51.280;7.950;2023-08-21T08:54:41;98672.66;;;27.82
72054;BMP280;59918;51.280;7.950;2023-08-21T08:57:06;98673.44;;;27.96
72054;BMP280;59918;51.280;7.950;2023-08-21T08:59:32;98668.56;;;28.16
72054;BMP280;59918;51.280;7.950;2023-08-21T09:01:58;98664.00;;;28.43
72054;BMP280;59918;51.280;7.950;2023-08-21T09:04:23;98661.63;;;28.68
72054;BMP280;59918;51.280;7.950;2023-08-21T09:06:48;98662.13;;;28.92
72054;BMP280;59918;51.280;7.950;2023-08-21T09:09:14;98661.91;;;29.24
72054;BMP280;59918;51.280;7.950;2023-08-21T09:11:44;98659.66;;;29.69
72054;BMP280;59918;51.280;7.950;2023-08-21T09:14:10;98650.31;;;30.02
72054;BMP280;59918;51.280;7.950;2023-08-21T09:16:36;98660.81;;;30.23
72054;BMP280;59918;51.280;7.950;2023-08-21T09:19:03;98646.69;;;30.45
72054;BMP280;59918;51.280;7.950;2023-08-21T09:21:28;98647.44;;;30.53
72054;BMP280;59918;51.280;7.950;2023-08-21T09:24:01;98649.97;;;30.67
72054;BMP280;59918;51.280;7.950;2023-08-21T09:26:31;98646.72;;;30.87
72054;BMP280;59918;51.280;7.950;2023-08-21T09:28:59;98649.63;;;31.19
72054;BMP280;59918;51.280;7.950;2023-08-21T09:31:30;98640.97;;;31.55
72054;BMP280;59918;51.280;7.950;2023-08-21T09:33:59;98635.31;;;32.02
72054;BMP280;59918;51.280;7.950;2023-08-21T09:36:25;98638.88;;;32.06
72054;BMP280;59918;51.280;7.950;2023-08-21T09:38:51;98631.50;;;32.11
72054;BMP280;59918;51.280;7.950;2023-08-21T09:41:19;98635.94;;;32.28
72054;BMP280;59918;51.280;7.950;2023-08-21T09:43:45;98631.94;;;32.82
72054;BMP280;59918;51.280;7.950;2023-08-21T09:46:17;98622.06;;;33.35
72054;BMP280;59918;51.280;7.950;2023-08-21T09:48:48;98629.78;;;34.08
72054;BMP280;59918;51.280;7.950;2023-08-21T09:51:14;98619.69;;;34.64
72054;BMP280;59918;51.280;7.950;2023-08-21T09:53:40;98619.78;;;35.22
72054;BMP280;59918;51.280;7.950;2023-08-21T09:56:05;98615.78;;;35.58
72054;BMP280;59918;51.280;7.950;2023-08-21T09:58:31;98617.16;;;35.52
72054;BMP280;59918;51.280;7.950;2023-08-21T10:00:57;98617.06;;;35.34
72054;BMP280;59918;51.280;7.950;2023-08-21T10:03:23;98613.75;;;34.43
72054;BMP280;59918;51.280;7.950;2023-08-21T10:05:49;98618.06;;;32.97
72054;BMP280;59918;51.280;7.950;2023-08-21T10:08:16;98623.94;;;31.93
72054;BMP280;59918;51.280;7.950;2023-08-21T10:10:43;98615.56;;;31.21
72054;BMP280;59918;51.280;7.950;2023-08-21T10:13:08;98616.69;;;31.11
72054;BMP280;59918;51.280;7.950;2023-08-21T10:15:34;98611.66;;;31.35
72054;BMP280;59918;51.280;7.950;2023-08-21T10:18:20;98617.22;;;31.96
72054;BMP280;59918;51.280;7.950;2023-08-21T10:20:46;98609.22;;;33.96
72054;BMP280;59918;51.280;7.950;2023-08-21T10:23:27;98602.00;;;35.14
72054;BMP280;59918;51.280;7.950;2023-08-21T10:25:56;98597.66;;;35.98
72054;BMP280;59918;51.280;7.950;2023-08-21T10:28:22;98590.88;;;36.72
72054;BMP280;59918;51.280;7.950;2023-08-21T10:30:47;98587.84;;;37.55
72054;BMP280;59918;51.280;7.950;2023-08-21T10:33:12;98586.78;;;37.60
72054;BMP280;59918;51.280;7.950;2023-08-21T10:35:38;98581.69;;;36.54
72054;BMP280;59918;51.280;7.950;2023-08-21T10:38:13;98576.59;;;36.86
72054;BMP280;59918;51.280;7.950;2023-08-21T10:40:40;98581.97;;;37.05
72054;BMP280;59918;51.280;7.950;2023-08-21T10:43:44;98571.69;;;35.83
72054;BMP280;59918;51.280;7.950;2023-08-21T10:46:10;98576.47;;;35.01
72054;BMP280;59918;51.280;7.950;2023-08-21T10:48:36;98577.25;;;34.47
72054;BMP280;59918;51.280;7.950;2023-08-21T10:51:03;98579.28;;;34.65
72054;BMP280;59918;51.280;7.950;2023-08-21T10:53:28;98562.13;;;37.10
72054;BMP280;59918;51.280;7.950;2023-08-21T10:55:54;98564.84;;;37.32
72054;BMP280;59918;51.280;7.950;2023-08-21T10:58:20;98569.97;;;36.43
72054;BMP280;59918;51.280;7.950;2023-08-21T11:00:45;98569.56;;;36.79
72054;BMP280;59918;51.280;7.950;2023-08-21T11:03:10;98559.75;;;37.49
72054;BMP280;59918;51.280;7.950;2023-08-21T11:05:36;98572.41;;;35.99
72054;BMP280;59918;51.280;7.950;2023-08-21T11:08:01;98582.75;;;34.66
72054;BMP280;59918;51.280;7.950;2023-08-21T11:10:30;98580.88;;;33.80
72054;BMP280;59918;51.280;7.950;2023-08-21T11:12:58;98574.59;;;33.17
72054;BMP280;59918;51.280;7.950;2023-08-21T11:15:27;98581.03;;;32.64
72054;BMP280;59918;51.280;7.950;2023-08-21T11:18:00;98586.75;;;32.74
72054;BMP280;59918;51.280;7.950;2023-08-21T11:20:36;98586.75;;;34.21
72054;BMP280;59918;51.280;7.950;2023-08-21T11:23:03;98579.31;;;34.54
72054;BMP280;59918;51.280;7.950;2023-08-21T11:25:29;98586.75;;;34.21
72054;BMP280;59918;51.280;7.950;2023-08-21T11:27:55;98576.75;;;34.57
72054;BMP280;59918;51.280;7.950;2023-08-21T11:30:23;98585.97;;;34.21
72054;BMP280;59918;51.280;7.950;2023-08-21T11:32:49;98590.13;;;33.83
72054;BMP280;59918;51.280;7.950;2023-08-21T11:35:14;98593.97;;;33.49
72054;BMP280;59918;51.280;7.950;2023-08-21T11:37:43;98588.34;;;33.07
72054;BMP280;59918;51.280;7.950;2023-08-21T11:40:09;98594.25;;;32.60
72054;BMP280;59918;51.280;7.950;2023-08-21T11:42:34;98585.28;;;32.97
72054;BMP280;59918;51.280;7.950;2023-08-21T11:45:01;98592.31;;;33.01
72054;BMP280;59918;51.280;7.950;2023-08-21T11:47:34;98588.16;;;32.72
72054;BMP280;59918;51.280;7.950;2023-08-21T11:50:04;98586.28;;;32.32
72054;BMP280;59918;51.280;7.950;2023-08-21T11:52:30;98586.97;;;32.00
72054;BMP280;59918;51.280;7.950;2023-08-21T11:54:55;98588.97;;;31.74
72054;BMP280;59918;51.280;7.950;2023-08-21T11:57:21;98588.97;;;31.74
72054;BMP280;59918;51.280;7.950;2023-08-21T11:59:50;98596.75;;;32.97
72054;BMP280;59918;51.280;7.950;2023-08-21T12:02:25;98586.63;;;35.53
72054;BMP280;59918;51.280;7.950;2023-08-21T12:05:13;98595.69;;;35.06
72054;BMP280;59918;51.280;7.950;2023-08-21T12:07:38;98581.84;;;37.43
72054;BMP280;59918;51.280;7.950;2023-08-21T12:10:04;98572.81;;;40.25
72054;BMP280;59918;51.280;7.950;2023-08-21T12:12:31;98566.53;;;42.26
72054;BMP280;59918;51.280;7.950;2023-08-21T12:14:57;98560.53;;;42.80
72054;BMP280;59918;51.280;7.950;2023-08-21T12:17:22;98566.88;;;42.42
72054;BMP280;59918;51.280;7.950;2023-08-21T12:19:47;98571.94;;;40.88
72054;BMP280;59918;51.280;7.950;2023-08-21T12:22:13;98562.34;;;41.01
72054;BMP280;59918;51.280;7.950;2023-08-21T12:24:40;98560.00;;;40.96
72054;BMP280;59918;51.280;7.950;2023-08-21T12:27:06;98571.72;;;38.94
72054;BMP280;59918;51.280;7.950;2023-08-21T12:29:31;98573.03;;;37.20
72054;BMP280;59918;51.280;7.950;2023-08-21T12:31:57;98572.91;;;35.85
72054;BMP280;59918;51.280;7.950;2023-08-21T12:34:22;98580.16;;;34.81
72054;BMP280;59918;51.280;7.950;2023-08-21T12:36:50;98581.75;;;34.08
72054;BMP280;59918;51.280;7.950;2023-08-21T12:39:15;98585.31;;;33.52
72054;BMP280;59918;51.280;7.950;2023-08-21T12:41:40;98593.50;;;33.36
72054;BMP280;59918;51.280;7.950;2023-08-21T12:44:06;98579.19;;;34.23
72054;BMP280;59918;51.280;7.950;2023-08-21T12:46:31;98586.78;;;34.09
72054;BMP280;59918;51.280;7.950;2023-08-21T12:48:56;98590.44;;;33.81
72054;BMP280;59918;51.280;7.950;2023-08-21T12:51:22;98586.53;;;34.14
72054;BMP280;59918;51.280;7.950;2023-08-21T12:53:47;98579.28;;;36.49
72054;BMP280;59918;51.280;7.950;2023-08-21T12:56:12;98558.78;;;39.95
72054;BMP280;59918;51.280;7.950;2023-08-21T12:58:38;98552.03;;;42.85
72054;BMP280;59918;51.280;7.950;2023-08-21T13:01:03;98550.44;;;44.54
72054;BMP280;59918;51.280;7.950;2023-08-21T13:03:29;98553.91;;;45.82
72054;BMP280;59918;51.280;7.950;2023-08-21T13:05:54;98547.84;;;46.90
72054;BMP280;59918;51.280;7.950;2023-08-21T13:08:20;98539.22;;;47.86
72054;BMP280;59918;51.280;7.950;2023-08-21T13:10:45;98531.06;;;48.26
72054;BMP280;59918;51.280;7.950;2023-08-21T13:13:11;98534.97;;;47.69
72054;BMP280;59918;51.280;7.950;2023-08-21T13:15:36;98533.19;;;46.10
72054;BMP280;59918;51.280;7.950;2023-08-21T13:18:01;98533.69;;;46.79
72054;BMP280;59918;51.280;7.950;2023-08-21T13:20:26;98524.38;;;48.15
72054;BMP280;59918;51.280;7.950;2023-08-21T13:22:52;98533.63;;;48.58
72054;BMP280;59918;51.280;7.950;2023-08-21T13:25:22;98525.13;;;47.43
72054;BMP280;59918;51.280;7.950;2023-08-21T13:27:48;98527.34;;;44.72
72054;BMP280;59918;51.280;7.950;2023-08-21T13:30:14;98534.97;;;42.88
72054;BMP280;59918;51.280;7.950;2023-08-21T13:32:39;98537.34;;;41.76
72054;BMP280;59918;51.280;7.950;2023-08-21T13:35:05;98543.16;;;40.22
72054;BMP280;59918;51.280;7.950;2023-08-21T13:37:31;98553.72;;;38.98
72054;BMP280;59918;51.280;7.950;2023-08-21T13:39:56;98560.34;;;38.38
72054;BMP280;59918;51.280;7.950;2023-08-21T13:42:21;98540.66;;;40.70
72054;BMP280;59918;51.280;7.950;2023-08-21T13:44:46;98527.91;;;43.54
72054;BMP280;59918;51.280;7.950;2023-08-21T13:47:12;98517.88;;;45.78
72054;BMP280;59918;51.280;7.950;2023-08-21T13:49:37;98517.00;;;45.84
72054;BMP280;59918;51.280;7.950;2023-08-21T13:52:02;98519.34;;;46.01
72054;BMP280;59918;51.280;7.950;2023-08-21T13:54:28;98519.28;;;46.05
72054;BMP280;59918;51.280;7.950;2023-08-21T13:56:53;98510.59;;;45.75
72054;BMP280;59918;51.280;7.950;2023-08-21T13:59:18;98515.41;;;45.87
72054;BMP280;59918;51.280;7.950;2023-08-21T14:01:43;98512.09;;;45.76
72054;BMP280;59918;51.280;7.950;2023-08-21T14:04:09;98511.94;;;45.63